sensor_id;sensor_type;location;lat;lon;timestamp;pressure;altitude;pressure_sealevel;temperature;humidity
62057;BME280;48016;50.284;18.860;2023-05-27T00:00:04;98876.64;;;11.04;55.28
62057;BME280;48016;50.284;18.860;2023-05-27T00:02:52;98875.69;;;10.99;55.49
62057;BME280;48016;50.284;18.860;2023-05-27T00:05:18;98875.92;;;10.97;55.47
62057;BME280;48016;50.284;18.860;2023-05-27T00:07:44;98876.70;;;10.96;55.52
62057;BME280;48016;50.284;18.860;2023-05-27T00:10:10;98875.50;;;10.92;55.77
62057;BME280;48016;50.284;18.860;2023-05-27T00:12:36;98881.30;;;10.89;55.76
62057;BME280;48016;50.284;18.860;2023-05-27T00:15:02;98883.22;;;10.87;55.87
62057;BME280;48016;50.284;18.860;2023-05-27T00:17:28;98884.14;;;10.85;55.86
62057;BME280;48016;50.284;18.860;2023-05-27T00:19:54;98878.16;;;10.82;55.94
62057;BME280;48016;50.284;18.860;2023-05-27T00:22:20;98879.32;;;10.81;56.12
62057;BME280;48016;50.284;18.860;2023-05-27T00:24:46;98882.20;;;10.79;56.08
62057;BME280;48016;50.284;18.860;2023-05-27T00:27:12;98883.02;;;10.77;56.36
62057;BME280;48016;50.284;18.860;2023-05-27T00:29:38;98881.44;;;10.76;56.39
62057;BME280;48016;50.284;18.860;2023-05-27T00:32:04;98886.02;;;10.74;56.48
62057;BME280;48016;50.284;18.860;2023-05-27T00:34:31;98883.36;;;10.72;56.56
62057;BME280;48016;50.284;18.860;2023-05-27T00:36:58;98889.67;;;10.71;56.67
62057;BME280;48016;50.284;18.860;2023-05-27T00:39:24;98888.63;;;10.68;56.68
62057;BME280;48016;50.284;18.860;2023-05-27T00:41:51;98889.94;;;10.65;56.78
62057;BME280;48016;50.284;18.860;2023-05-27T00:44:17;98888.96;;;10.62;57.02
62057;BME280;48016;50.284;18.860;2023-05-27T00:46:47;98885.09;;;10.58;57.25
62057;BME280;48016;50.284;18.860;2023-05-27T00:49:14;98887.20;;;10.55;57.30
62057;BME280;48016;50.284;18.860;2023-05-27T00:51:41;98888.02;;;10.53;57.53
62057;BME280;48016;50.284;18.860;2023-05-27T00:54:08;98895.54;;;10.50;57.66
62057;BME280;48016;50.284;18.860;2023-05-27T00:56:35;98890.49;;;10.47;58.00
62057;BME280;48016;50.284;18.860;2023-05-27T00:59:02;98889.14;;;10.44;58.07
62057;BME280;48016;50.284;18.860;2023-05-27T01:01:28;98884.38;;;10.41;58.21
62057;BME280;48016;50.284;18.860;2023-05-27T01:03:55;98886.79;;;10.37;58.29
62057;BME280;48016;50.284;18.860;2023-05-27T01:06:26;98886.64;;;10.32;58.26
62057;BME280;48016;50.284;18.860;2023-05-27T01:11:59;98883.80;;;10.22;58.95
62057;BME280;48016;50.284;18.860;2023-05-27T01:14:30;98885.98;;;10.17;58.94
62057;BME280;48016;50.284;18.860;2023-05-27T01:16:57;98885.84;;;10.14;59.02
62057;BME280;48016;50.284;18.860;2023-05-27T01:19:32;98884.48;;;10.09;59.13
62057;BME280;48016;50.284;18.860;2023-05-27T01:22:00;98884.25;;;10.03;59.37
62057;BME280;48016;50.284;18.860;2023-05-27T01:24:27;98884.48;;;10.01;59.73
62057;BME280;48016;50.284;18.860;2023-05-27T01:26:54;98879.73;;;9.96;59.97
62057;BME280;48016;50.284;18.860;2023-05-27T01:29:23;98880.74;;;9.93;60.27
62057;BME280;48016;50.284;18.860;2023-05-27T01:32:03;98885.52;;;9.89;60.40
62057;BME280;48016;50.284;18.860;2023-05-27T01:34:40;98887.00;;;9.85;60.90
62057;BME280;48016;50.284;18.860;2023-05-27T01:37:09;98888.70;;;9.79;61.24
62057;BME280;48016;50.284;18.860;2023-05-27T01:39:40;98888.00;;;9.75;61.35
62057;BME280;48016;50.284;18.860;2023-05-27T01:42:07;98885.29;;;9.72;61.30
62057;BME280;48016;50.284;18.860;2023-05-27T01:44:33;98884.00;;;9.70;61.54
62057;BME280;48016;50.284;18.860;2023-05-27T01:47:01;98883.17;;;9.67;61.85
62057;BME280;48016;50.284;18.860;2023-05-27T01:49:27;98881.73;;;9.65;61.80
62057;BME280;48016;50.284;18.860;2023-05-27T01:51:53;98881.20;;;9.63;61.97
62057;BME280;48016;50.284;18.860;2023-05-27T01:54:20;98877.31;;;9.61;62.40
62057;BME280;48016;50.284;18.860;2023-05-27T01:56:46;98876.13;;;9.59;62.21
62057;BME280;48016;50.284;18.860;2023-05-27T01:59:12;98872.05;;;9.57;62.95
62057;BME280;48016;50.284;18.860;2023-05-27T02:01:38;98875.56;;;9.53;62.91
62057;BME280;48016;50.284;18.860;2023-05-27T02:04:05;98873.27;;;9.50;62.74
62057;BME280;48016;50.284;18.860;2023-05-27T02:06:30;98881.27;;;9.47;62.90
62057;BME280;48016;50.284;18.860;2023-05-27T02:08:58;98883.67;;;9.44;63.02
62057;BME280;48016;50.284;18.860;2023-05-27T02:11:23;98884.52;;;9.44;63.14
62057;BME280;48016;50.284;18.860;2023-05-27T02:13:50;98886.85;;;9.40;63.49
62057;BME280;48016;50.284;18.860;2023-05-27T02:16:18;98888.83;;;9.37;63.37
62057;BME280;48016;50.284;18.860;2023-05-27T02:18:49;98885.88;;;9.33;63.52
62057;BME280;48016;50.284;18.860;2023-05-27T02:21:15;98889.88;;;9.29;63.73
62057;BME280;48016;50.284;18.860;2023-05-27T02:23:41;98889.86;;;9.24;64.12
62057;BME280;48016;50.284;18.860;2023-05-27T02:26:07;98890.68;;;9.19;64.44
62057;BME280;48016;50.284;18.860;2023-05-27T02:28:33;98896.17;;;9.16;64.28
62057;BME280;48016;50.284;18.860;2023-05-27T02:30:59;98899.66;;;9.13;65.10
62057;BME280;48016;50.284;18.860;2023-05-27T02:33:25;98905.54;;;9.08;65.67
62057;BME280;48016;50.284;18.860;2023-05-27T02:35:51;98908.41;;;9.04;65.11
62057;BME280;48016;50.284;18.860;2023-05-27T02:38:17;98912.42;;;9.03;65.52
62057;BME280;48016;50.284;18.860;2023-05-27T02:40:43;98913.86;;;8.98;66.21
62057;BME280;48016;50.284;18.860;2023-05-27T02:43:09;98910.14;;;8.92;66.03
62057;BME280;48016;50.284;18.860;2023-05-27T02:45:35;98910.77;;;8.85;67.01
62057;BME280;48016;50.284;18.860;2023-05-27T02:48:01;98911.55;;;8.80;67.28
62057;BME280;48016;50.284;18.860;2023-05-27T02:50:27;98913.10;;;8.76;67.33
62057;BME280;48016;50.284;18.860;2023-05-27T02:52:53;98910.96;;;8.73;67.40
62057;BME280;48016;50.284;18.860;2023-05-27T02:55:19;98913.76;;;8.70;68.11
62057;BME280;48016;50.284;18.860;2023-05-27T02:57:45;98914.89;;;8.68;68.29
62057;BME280;48016;50.284;18.860;2023-05-27T03:00:12;98918.57;;;8.69;68.19
62057;BME280;48016;50.284;18.860;2023-05-27T03:02:39;98920.88;;;8.71;68.04
62057;BME280;48016;50.284;18.860;2023-05-27T03:05:05;98917.98;;;8.73;68.30
62057;BME280;48016;50.284;18.860;2023-05-27T03:07:31;98918.45;;;8.75;68.38
62057;BME280;48016;50.284;18.860;2023-05-27T03:09:57;98922.19;;;8.75;68.49
62057;BME280;48016;50.284;18.860;2023-05-27T03:12:23;98929.98;;;8.76;68.84
62057;BME280;48016;50.284;18.860;2023-05-27T03:14:50;98930.26;;;8.76;68.78
62057;BME280;48016;50.284;18.860;2023-05-27T03:17:18;98932.16;;;8.77;69.24
62057;BME280;48016;50.284;18.860;2023-05-27T03:19:44;98936.16;;;8.79;68.91
62057;BME280;48016;50.284;18.860;2023-05-27T03:22:10;98940.40;;;8.80;69.45
62057;BME280;48016;50.284;18.860;2023-05-27T03:24:36;98943.25;;;8.84;69.10
62057;BME280;48016;50.284;18.860;2023-05-27T03:27:02;98950.93;;;8.91;69.19
62057;BME280;48016;50.284;18.860;2023-05-27T03:29:32;98951.27;;;8.97;69.01
62057;BME280;48016;50.284;18.860;2023-05-27T03:31:58;98951.39;;;9.02;68.80
62057;BME280;48016;50.284;18.860;2023-05-27T03:34:24;98953.98;;;9.05;68.74
62057;BME280;48016;50.284;18.860;2023-05-27T03:36:50;98953.84;;;9.09;69.03
62057;BME280;48016;50.284;18.860;2023-05-27T03:39:16;98959.00;;;9.14;68.97
62057;BME280;48016;50.284;18.860;2023-05-27T03:41:43;98961.33;;;9.19;68.80
62057;BME280;48016;50.284;18.860;2023-05-27T03:44:09;98965.89;;;9.22;68.89
62057;BME280;48016;50.284;18.860;2023-05-27T03:46:35;98965.67;;;9.26;69.17
62057;BME280;48016;50.284;18.860;2023-05-27T03:49:01;98970.21;;;9.33;69.15
62057;BME280;48016;50.284;18.860;2023-05-27T03:51:27;98974.96;;;9.43;69.07
62057;BME280;48016;50.284;18.860;2023-05-27T03:53:54;98975.63;;;9.59;68.71
62057;BME280;48016;50.284;18.860;2023-05-27T03:56:20;98981.72;;;9.78;68.41
62057;BME280;48016;50.284;18.860;2023-05-27T03:58:46;98979.89;;;9.95;68.04
62057;BME280;48016;50.284;18.860;2023-05-27T04:01:12;98979.27;;;10.14;67.62
62057;BME280;48016;50.284;18.860;2023-05-27T04:03:38;98976.88;;;10.32;67.36
62057;BME280;48016;50.284;18.860;2023-05-27T04:06:05;98979.36;;;10.54;66.99
62057;BME280;48016;50.284;18.860;2023-05-27T04:08:32;98984.35;;;10.73;66.76
62057;BME280;48016;50.284;18.860;2023-05-27T04:10:58;98983.77;;;10.89;66.41
62057;BME280;48016;50.284;18.860;2023-05-27T04:13:24;98985.20;;;11.04;65.51
62057;BME280;48016;50.284;18.860;2023-05-27T04:15:50;98986.16;;;11.03;65.10
62057;BME280;48016;50.284;18.860;2023-05-27T04:18:16;98989.27;;;11.04;64.86
62057;BME280;48016;50.284;18.860;2023-05-27T04:20:42;98987.66;;;11.05;64.77
62057;BME280;48016;50.284;18.860;2023-05-27T04:23:09;98988.17;;;11.12;64.46
62057;BME280;48016;50.284;18.860;2023-05-27T04:25:36;98989.29;;;11.17;64.23
62057;BME280;48016;50.284;18.860;2023-05-27T04:28:03;98988.40;;;11.30;63.75
62057;BME280;48016;50.284;18.860;2023-05-27T04:30:32;98992.41;;;11.39;63.44
62057;BME280;48016;50.284;18.860;2023-05-27T04:33:02;98993.52;;;11.56;63.30
62057;BME280;48016;50.284;18.860;2023-05-27T04:35:28;98994.27;;;11.78;62.61
62057;BME280;48016;50.284;18.860;2023-05-27T04:37:57;98994.83;;;11.93;62.04
62057;BME280;48016;50.284;18.860;2023-05-27T04:40:24;98992.39;;;12.20;61.60
62057;BME280;48016;50.284;18.860;2023-05-27T04:42:50;98995.55;;;12.35;60.72
62057;BME280;48016;50.284;18.860;2023-05-27T04:45:17;98995.25;;;12.41;59.63
62057;BME280;48016;50.284;18.860;2023-05-27T04:47:44;98991.99;;;12.41;59.57
62057;BME280;48016;50.284;18.860;2023-05-27T04:50:10;98992.44;;;12.60;59.51
62057;BME280;48016;50.284;18.860;2023-05-27T04:52:37;98992.12;;;12.75;58.76
62057;BME280;48016;50.284;18.860;2023-05-27T04:55:08;98991.33;;;12.81;58.26
62057;BME280;48016;50.284;18.860;2023-05-27T04:57:35;98994.05;;;13.03;58.18
62057;BME280;48016;50.284;18.860;2023-05-27T05:00:03;98994.67;;;13.28;57.85
62057;BME280;48016;50.284;18.860;2023-05-27T05:02:30;98997.06;;;13.60;57.13
62057;BME280;48016;50.284;18.860;2023-05-27T05:05:06;98997.45;;;13.81;56.37
62057;BME280;48016;50.284;18.860;2023-05-27T05:07:32;98993.71;;;13.95;56.17
62057;BME280;48016;50.284;18.860;2023-05-27T05:10:12;98993.98;;;14.24;56.25
62057;BME280;48016;50.284;18.860;2023-05-27T05:12:38;98992.50;;;14.54;54.95
62057;BME280;48016;50.284;18.860;2023-05-27T05:15:05;98993.35;;;14.82;54.94
62057;BME280;48016;50.284;18.860;2023-05-27T05:17:32;98988.73;;;15.12;54.16
62057;BME280;48016;50.284;18.860;2023-05-27T05:19:57;98991.46;;;15.46;54.31
62057;BME280;48016;50.284;18.860;2023-05-27T05:22:23;98990.33;;;15.78;53.22
62057;BME280;48016;50.284;18.860;2023-05-27T05:24:52;98987.71;;;16.16;52.72
62057;BME280;48016;50.284;18.860;2023-05-27T05:27:20;98989.67;;;16.46;51.71
62057;BME280;48016;50.284;18.860;2023-05-27T05:29:46;98992.45;;;16.50;50.09
62057;BME280;48016;50.284;18.860;2023-05-27T05:32:12;98992.33;;;16.32;49.48
62057;BME280;48016;50.284;18.860;2023-05-27T05:34:39;98991.40;;;16.23;49.84
62057;BME280;48016;50.284;18.860;2023-05-27T05:37:05;98993.64;;;16.21;49.06
62057;BME280;48016;50.284;18.860;2023-05-27T05:39:32;98993.21;;;16.14;49.23
62057;BME280;48016;50.284;18.860;2023-05-27T05:41:58;98995.03;;;16.14;49.52
62057;BME280;48016;50.284;18.860;2023-05-27T05:44:25;98993.91;;;16.29;50.14
62057;BME280;48016;50.284;18.860;2023-05-27T05:46:51;98998.70;;;16.58;50.05
62057;BME280;48016;50.284;18.860;2023-05-27T05:49:18;98997.70;;;16.90;49.43
62057;BME280;48016;50.284;18.860;2023-05-27T05:51:44;99001.77;;;17.21;48.69
62057;BME280;48016;50.284;18.860;2023-05-27T05:54:10;99002.49;;;17.28;47.87
62057;BME280;48016;50.284;18.860;2023-05-27T05:56:36;99001.75;;;17.44;47.61
62057;BME280;48016;50.284;18.860;2023-05-27T05:59:02;99007.91;;;17.73;47.90
62057;BME280;48016;50.284;18.860;2023-05-27T06:01:28;99007.18;;;17.98;47.13
62057;BME280;48016;50.284;18.860;2023-05-27T06:03:54;99010.16;;;18.29;47.27
62057;BME280;48016;50.284;18.860;2023-05-27T06:06:21;99011.69;;;18.61;46.48
62057;BME280;48016;50.284;18.860;2023-05-27T06:08:47;99010.61;;;18.76;45.67
62057;BME280;48016;50.284;18.860;2023-05-27T06:11:14;99013.94;;;18.87;44.64
62057;BME280;48016;50.284;18.860;2023-05-27T06:13:40;99010.83;;;18.95;45.40
62057;BME280;48016;50.284;18.860;2023-05-27T06:16:06;99011.39;;;19.21;45.40
62057;BME280;48016;50.284;18.860;2023-05-27T06:18:32;99010.68;;;19.52;44.85
62057;BME280;48016;50.284;18.860;2023-05-27T06:20:58;99007.96;;;19.70;43.75
62057;BME280;48016;50.284;18.860;2023-05-27T06:23:24;99011.58;;;19.82;43.33
62057;BME280;48016;50.284;18.860;2023-05-27T06:25:50;99012.92;;;19.87;42.89
62057;BME280;48016;50.284;18.860;2023-05-27T06:28:16;99013.77;;;20.04;42.55
62057;BME280;48016;50.284;18.860;2023-05-27T06:30:42;99017.38;;;20.21;42.40
62057;BME280;48016;50.284;18.860;2023-05-27T06:33:08;99016.77;;;20.17;40.55
62057;BME280;48016;50.284;18.860;2023-05-27T06:35:34;99017.19;;;19.92;41.00
62057;BME280;48016;50.284;18.860;2023-05-27T06:38:01;99015.60;;;19.95;42.17
62057;BME280;48016;50.284;18.860;2023-05-27T06:40:27;99012.20;;;20.15;42.26
62057;BME280;48016;50.284;18.860;2023-05-27T06:42:54;99010.27;;;20.37;42.13
62057;BME280;48016;50.284;18.860;2023-05-27T06:45:20;99011.55;;;20.59;42.06
62057;BME280;48016;50.284;18.860;2023-05-27T06:47:46;99008.36;;;20.85;42.09
62057;BME280;48016;50.284;18.860;2023-05-27T06:50:12;99015.93;;;21.05;41.51
62057;BME280;48016;50.284;18.860;2023-05-27T06:52:38;99014.05;;;21.29;40.68
62057;BME280;48016;50.284;18.860;2023-05-27T06:55:04;99011.66;;;21.44;40.82
62057;BME280;48016;50.284;18.860;2023-05-27T06:57:31;99010.72;;;21.68;40.59
62057;BME280;48016;50.284;18.860;2023-05-27T06:59:56;99008.81;;;21.81;39.49
62057;BME280;48016;50.284;18.860;2023-05-27T07:02:22;99008.60;;;21.81;39.42
62057;BME280;48016;50.284;18.860;2023-05-27T07:04:48;99005.52;;;21.88;39.11
62057;BME280;48016;50.284;18.860;2023-05-27T07:07:14;99010.84;;;22.05;39.17
62057;BME280;48016;50.284;18.860;2023-05-27T07:09:40;99016.55;;;22.15;38.59
62057;BME280;48016;50.284;18.860;2023-05-27T07:12:07;99015.71;;;21.94;37.17
62057;BME280;48016;50.284;18.860;2023-05-27T07:14:33;99014.66;;;21.60;37.78
62057;BME280;48016;50.284;18.860;2023-05-27T07:16:59;99012.44;;;21.54;37.73
62057;BME280;48016;50.284;18.860;2023-05-27T07:19:25;99013.77;;;21.72;37.90
62057;BME280;48016;50.284;18.860;2023-05-27T07:21:51;99009.12;;;21.96;38.31
62057;BME280;48016;50.284;18.860;2023-05-27T07:24:17;99011.16;;;22.09;38.00
62057;BME280;48016;50.284;18.860;2023-05-27T07:26:43;99009.01;;;22.20;37.73
62057;BME280;48016;50.284;18.860;2023-05-27T07:29:08;99012.33;;;22.36;38.12
62057;BME280;48016;50.284;18.860;2023-05-27T07:31:34;99015.80;;;22.46;37.23
62057;BME280;48016;50.284;18.860;2023-05-27T07:34:00;99013.58;;;22.31;35.97
62057;BME280;48016;50.284;18.860;2023-05-27T07:36:26;99015.21;;;22.25;37.90
62057;BME280;48016;50.284;18.860;2023-05-27T07:38:52;99016.30;;;22.40;38.00
62057;BME280;48016;50.284;18.860;2023-05-27T07:41:18;99014.23;;;22.53;37.80
62057;BME280;48016;50.284;18.860;2023-05-27T07:43:44;99010.15;;;22.61;37.26
62057;BME280;48016;50.284;18.860;2023-05-27T07:46:10;99010.48;;;22.61;36.78
62057;BME280;48016;50.284;18.860;2023-05-27T07:48:36;99010.57;;;22.67;36.59
62057;BME280;48016;50.284;18.860;2023-05-27T07:51:02;99014.86;;;22.65;35.78
62057;BME280;48016;50.284;18.860;2023-05-27T07:53:28;99022.23;;;22.34;34.92
62057;BME280;48016;50.284;18.860;2023-05-27T07:55:53;99013.51;;;21.93;34.77
62057;BME280;48016;50.284;18.860;2023-05-27T07:58:19;99011.71;;;21.63;35.72
62057;BME280;48016;50.284;18.860;2023-05-27T08:00:45;99008.56;;;21.55;36.42
62057;BME280;48016;50.284;18.860;2023-05-27T08:03:11;99010.23;;;21.45;36.39
62057;BME280;48016;50.284;18.860;2023-05-27T08:05:37;99008.06;;;21.32;36.30
62057;BME280;48016;50.284;18.860;2023-05-27T08:08:03;99007.77;;;21.22;36.42
62057;BME280;48016;50.284;18.860;2023-05-27T08:10:30;99006.75;;;20.97;36.76
62057;BME280;48016;50.284;18.860;2023-05-27T08:12:56;99000.36;;;20.87;37.40
62057;BME280;48016;50.284;18.860;2023-05-27T08:15:22;99003.54;;;20.85;37.63
62057;BME280;48016;50.284;18.860;2023-05-27T08:17:49;98998.48;;;20.81;37.98
62057;BME280;48016;50.284;18.860;2023-05-27T08:20:15;99001.74;;;20.84;37.66
62057;BME280;48016;50.284;18.860;2023-05-27T08:22:41;98995.11;;;20.71;37.55
62057;BME280;48016;50.284;18.860;2023-05-27T08:25:08;98994.39;;;20.71;37.57
62057;BME280;48016;50.284;18.860;2023-05-27T08:27:53;98991.11;;;20.49;37.50
62057;BME280;48016;50.284;18.860;2023-05-27T08:30:20;98990.11;;;20.53;38.71
62057;BME280;48016;50.284;18.860;2023-05-27T08:32:46;98991.85;;;20.75;38.57
62057;BME280;48016;50.284;18.860;2023-05-27T08:35:12;98987.21;;;20.92;38.16
62057;BME280;48016;50.284;18.860;2023-05-27T08:37:39;98987.38;;;21.04;38.07
62057;BME280;48016;50.284;18.860;2023-05-27T08:40:10;98983.39;;;21.05;37.72
62057;BME280;48016;50.284;18.860;2023-05-27T08:42:36;98982.83;;;20.84;37.55
62057;BME280;48016;50.284;18.860;2023-05-27T08:45:02;98981.58;;;20.58;37.88
62057;BME280;48016;50.284;18.860;2023-05-27T08:47:29;98978.86;;;20.59;37.62
62057;BME280;48016;50.284;18.860;2023-05-27T08:49:56;98974.72;;;20.57;37.34
62057;BME280;48016;50.284;18.860;2023-05-27T08:52:27;98975.02;;;20.53;37.34
62057;BME280;48016;50.284;18.860;2023-05-27T08:54:54;98976.41;;;20.61;37.61
62057;BME280;48016;50.284;18.860;2023-05-27T08:57:27;98973.86;;;20.57;36.97
62057;BME280;48016;50.284;18.860;2023-05-27T08:59:53;98972.02;;;20.45;36.80
62057;BME280;48016;50.284;18.860;2023-05-27T09:02:21;98976.23;;;20.40;37.44
62057;BME280;48016;50.284;18.860;2023-05-27T09:04:47;98974.77;;;20.47;37.30
62057;BME280;48016;50.284;18.860;2023-05-27T09:07:14;98974.36;;;20.56;37.09
62057;BME280;48016;50.284;18.860;2023-05-27T09:09:40;98977.01;;;20.61;37.03
62057;BME280;48016;50.284;18.860;2023-05-27T09:12:06;98974.34;;;20.63;36.42
62057;BME280;48016;50.284;18.860;2023-05-27T09:14:34;98975.95;;;20.59;36.22
62057;BME280;48016;50.284;18.860;2023-05-27T09:17:08;98969.32;;;20.59;36.10
62057;BME280;48016;50.284;18.860;2023-05-27T09:19:34;98971.25;;;20.51;36.20
62057;BME280;48016;50.284;18.860;2023-05-27T09:22:00;98970.39;;;20.41;35.89
62057;BME280;48016;50.284;18.860;2023-05-27T09:24:27;98965.61;;;20.36;36.55
62057;BME280;48016;50.284;18.860;2023-05-27T09:26:54;98958.21;;;20.25;35.88
62057;BME280;48016;50.284;18.860;2023-05-27T09:29:25;98949.89;;;20.29;36.68
62057;BME280;48016;50.284;18.860;2023-05-27T09:31:55;98951.70;;;20.24;36.17
62057;BME280;48016;50.284;18.860;2023-05-27T09:34:21;98950.54;;;20.22;36.10
62057;BME280;48016;50.284;18.860;2023-05-27T09:36:50;98948.08;;;20.15;35.88
62057;BME280;48016;50.284;18.860;2023-05-27T09:39:18;98950.08;;;19.95;35.73
62057;BME280;48016;50.284;18.860;2023-05-27T09:41:52;98944.04;;;19.85;35.87
62057;BME280;48016;50.284;18.860;2023-05-27T09:44:19;98947.57;;;19.84;35.67
62057;BME280;48016;50.284;18.860;2023-05-27T09:46:45;98945.86;;;19.67;35.27
62057;BME280;48016;50.284;18.860;2023-05-27T09:49:14;98942.86;;;19.55;36.18
62057;BME280;48016;50.284;18.860;2023-05-27T09:51:41;98947.02;;;19.48;35.23
62057;BME280;48016;50.284;18.860;2023-05-27T09:54:09;98946.41;;;19.37;35.28
62057;BME280;48016;50.284;18.860;2023-05-27T09:56:36;98943.44;;;19.31;35.80
62057;BME280;48016;50.284;18.860;2023-05-27T09:59:03;98948.37;;;19.27;36.07
62057;BME280;48016;50.284;18.860;2023-05-27T10:01:32;98943.34;;;19.37;36.33
62057;BME280;48016;50.284;18.860;2023-05-27T10:03:58;98940.92;;;19.45;35.88
62057;BME280;48016;50.284;18.860;2023-05-27T10:06:25;98943.97;;;19.35;35.40
62057;BME280;48016;50.284;18.860;2023-05-27T10:08:55;98940.64;;;19.31;35.63
62057;BME280;48016;50.284;18.860;2023-05-27T10:11:25;98943.43;;;19.34;35.52
62057;BME280;48016;50.284;18.860;2023-05-27T10:13:54;98938.70;;;19.31;35.95
62057;BME280;48016;50.284;18.860;2023-05-27T10:16:26;98937.56;;;19.38;35.52
62057;BME280;48016;50.284;18.860;2023-05-27T10:18:54;98934.98;;;19.46;36.09
62057;BME280;48016;50.284;18.860;2023-05-27T10:21:22;98940.95;;;19.50;35.23
62057;BME280;48016;50.284;18.860;2023-05-27T10:23:59;98939.39;;;19.37;35.44
62057;BME280;48016;50.284;18.860;2023-05-27T10:26:36;98939.94;;;19.19;34.85
62057;BME280;48016;50.284;18.860;2023-05-27T10:29:07;98935.32;;;19.20;35.78
62057;BME280;48016;50.284;18.860;2023-05-27T10:31:34;98932.46;;;19.24;35.82
62057;BME280;48016;50.284;18.860;2023-05-27T10:34:05;98929.95;;;19.27;35.18
62057;BME280;48016;50.284;18.860;2023-05-27T10:36:33;98929.94;;;19.16;35.52
62057;BME280;48016;50.284;18.860;2023-05-27T10:41:41;98927.69;;;19.01;35.38
62057;BME280;48016;50.284;18.860;2023-05-27T10:44:07;98926.70;;;18.97;35.87
62057;BME280;48016;50.284;18.860;2023-05-27T10:46:41;98926.54;;;19.01;36.19
62057;BME280;48016;50.284;18.860;2023-05-27T10:51:37;98919.37;;;19.19;35.45
62057;BME280;48016;50.284;18.860;2023-05-27T10:54:03;98914.13;;;19.19;34.47
62057;BME280;48016;50.284;18.860;2023-05-27T10:56:30;98919.29;;;19.01;34.37
62057;BME280;48016;50.284;18.860;2023-05-27T10:58:56;98919.56;;;18.93;34.06
62057;BME280;48016;50.284;18.860;2023-05-27T11:01:26;98920.02;;;18.83;33.63
62057;BME280;48016;50.284;18.860;2023-05-27T11:03:54;98920.98;;;18.61;33.08
62057;BME280;48016;50.284;18.860;2023-05-27T11:06:20;98915.77;;;18.54;33.47
62057;BME280;48016;50.284;18.860;2023-05-27T11:08:46;98910.23;;;18.59;33.87
62057;BME280;48016;50.284;18.860;2023-05-27T11:11:13;98909.46;;;18.74;34.42
62057;BME280;48016;50.284;18.860;2023-05-27T11:13:44;98910.56;;;18.82;33.75
62057;BME280;48016;50.284;18.860;2023-05-27T11:16:12;98908.77;;;18.86;32.98
62057;BME280;48016;50.284;18.860;2023-05-27T11:18:44;98907.31;;;18.84;32.90
62057;BME280;48016;50.284;18.860;2023-05-27T11:21:12;98909.91;;;18.82;32.73
62057;BME280;48016;50.284;18.860;2023-05-27T11:23:42;98908.77;;;18.72;32.27
62057;BME280;48016;50.284;18.860;2023-05-27T11:26:12;98908.60;;;18.67;33.04
62057;BME280;48016;50.284;18.860;2023-05-27T11:28:53;98907.93;;;18.72;32.98
62057;BME280;48016;50.284;18.860;2023-05-27T11:31:22;98910.39;;;18.79;32.75
62057;BME280;48016;50.284;18.860;2023-05-27T11:33:52;98904.02;;;18.74;32.47
62057;BME280;48016;50.284;18.860;2023-05-27T11:36:18;98906.21;;;18.75;32.48
62057;BME280;48016;50.284;18.860;2023-05-27T11:38:54;98907.39;;;18.71;32.44
62057;BME280;48016;50.284;18.860;2023-05-27T11:41:28;98906.51;;;18.63;31.52
62057;BME280;48016;50.284;18.860;2023-05-27T11:43:57;98898.86;;;18.57;32.28
62057;BME280;48016;50.284;18.860;2023-05-27T11:46:35;98898.31;;;18.61;32.60
62057;BME280;48016;50.284;18.860;2023-05-27T11:49:05;98901.81;;;18.62;32.07
62057;BME280;48016;50.284;18.860;2023-05-27T11:51:33;98893.07;;;18.56;31.90
62057;BME280;48016;50.284;18.860;2023-05-27T11:54:00;98895.80;;;18.56;31.69
62057;BME280;48016;50.284;18.860;2023-05-27T11:56:29;98887.95;;;18.48;31.63
62057;BME280;48016;50.284;18.860;2023-05-27T11:58:56;98885.29;;;18.52;31.50
62057;BME280;48016;50.284;18.860;2023-05-27T12:01:22;98884.70;;;18.56;31.46
62057;BME280;48016;50.284;18.860;2023-05-27T12:03:48;98885.64;;;18.59;30.80
62057;BME280;48016;50.284;18.860;2023-05-27T12:06:14;98882.98;;;18.52;30.22
62057;BME280;48016;50.284;18.860;2023-05-27T12:08:41;98885.02;;;18.47;30.22
62057;BME280;48016;50.284;18.860;2023-05-27T12:11:08;98880.26;;;18.47;30.78
62057;BME280;48016;50.284;18.860;2023-05-27T12:13:34;98879.11;;;18.51;30.97
62057;BME280;48016;50.284;18.860;2023-05-27T12:16:00;98872.70;;;18.61;31.05
62057;BME280;48016;50.284;18.860;2023-05-27T12:18:26;98882.35;;;18.67;30.64
62057;BME280;48016;50.284;18.860;2023-05-27T12:20:52;98880.89;;;18.58;30.70
62057;BME280;48016;50.284;18.860;2023-05-27T12:23:18;98877.35;;;18.52;31.07
62057;BME280;48016;50.284;18.860;2023-05-27T12:25:44;98878.55;;;18.57;31.32
62057;BME280;48016;50.284;18.860;2023-05-27T12:28:10;98875.38;;;18.61;31.50
62057;BME280;48016;50.284;18.860;2023-05-27T12:30:36;98873.77;;;18.67;31.84
62057;BME280;48016;50.284;18.860;2023-05-27T12:33:03;98876.14;;;18.80;31.73
62057;BME280;48016;50.284;18.860;2023-05-27T12:35:30;98872.73;;;18.85;31.61
62057;BME280;48016;50.284;18.860;2023-05-27T12:37:57;98868.08;;;18.84;29.70
62057;BME280;48016;50.284;18.860;2023-05-27T12:40:24;98864.27;;;18.82;29.70
62057;BME280;48016;50.284;18.860;2023-05-27T12:42:50;98866.83;;;18.76;29.55
62057;BME280;48016;50.284;18.860;2023-05-27T12:45:16;98862.71;;;18.76;30.38
62057;BME280;48016;50.284;18.860;2023-05-27T12:47:42;98856.58;;;18.76;30.53
62057;BME280;48016;50.284;18.860;2023-05-27T12:50:08;98857.30;;;18.79;30.64
62057;BME280;48016;50.284;18.860;2023-05-27T12:52:34;98855.63;;;18.77;30.38
62057;BME280;48016;50.284;18.860;2023-05-27T12:55:05;98858.66;;;18.71;30.49
62057;BME280;48016;50.284;18.860;2023-05-27T12:57:31;98857.48;;;18.67;30.35
62057;BME280;48016;50.284;18.860;2023-05-27T12:59:57;98857.29;;;18.66;30.36